createdAt,value
2018-12-19T00:02:03.075Z,20.40
2018-12-19T00:04:30.563Z,20.67
2018-12-19T00:06:58.050Z,21.13
2018-12-19T00:09:25.619Z,21.17
2018-12-19T00:11:53.079Z,21.40
2018-12-19T00:14:20.598Z,20.53
2018-12-19T00:16:48.447Z,20.77
2018-12-19T00:19:15.990Z,20.87
2018-12-19T00:21:43.497Z,20.27
2018-12-19T00:24:11.077Z,20.67
2018-12-19T00:26:38.653Z,21.80
2018-12-19T00:29:06.206Z,23.10
2018-12-19T00:31:33.835Z,20.20
2018-12-19T00:34:01.477Z,20.40
2018-12-19T00:36:28.963Z,22.50
2018-12-19T00:38:56.458Z,22.30
2018-12-19T00:41:23.974Z,22.10
2018-12-19T00:46:49.358Z,21.50
2018-12-19T00:49:16.841Z,20.03
2018-12-19T00:51:44.317Z,21.70
2018-12-19T00:54:11.819Z,20.53
2018-12-19T00:56:39.417Z,22.23
2018-12-19T00:59:06.923Z,19.57
2018-12-19T01:01:34.435Z,20.47
2018-12-19T01:04:01.909Z,21.10
2018-12-19T01:06:29.541Z,21.87
2018-12-19T01:08:56.994Z,22.17
2018-12-19T01:11:24.499Z,22.17
2018-12-19T01:13:51.946Z,20.73
2018-12-19T01:16:19.426Z,21.27
2018-12-19T01:18:46.851Z,22.70
2018-12-19T01:21:14.355Z,20.83
2018-12-19T01:23:41.809Z,20.40
2018-12-19T01:26:10.280Z,21.53
2018-12-19T01:28:37.711Z,20.83
2018-12-19T01:31:05.185Z,21.57
2018-12-19T01:33:32.645Z,21.83
2018-12-19T01:36:00.109Z,19.50
2018-12-19T01:38:27.576Z,20.87
2018-12-19T01:40:55.050Z,19.67
2018-12-19T01:43:22.518Z,20.20
2018-12-19T01:45:49.986Z,20.03
2018-12-19T01:48:17.460Z,19.53
2018-12-19T01:50:44.962Z,19.40
2018-12-19T01:53:12.555Z,19.70
2018-12-19T01:55:40.257Z,19.90
2018-12-19T01:58:07.714Z,19.60
2018-12-19T02:00:35.308Z,21.30
2018-12-19T02:03:02.824Z,18.27
2018-12-19T02:05:30.343Z,20.80
2018-12-19T02:07:57.834Z,19.43
2018-12-19T02:10:25.389Z,21.70
2018-12-19T02:12:52.932Z,21.43
2018-12-19T02:15:21.428Z,21.00
2018-12-19T02:17:48.868Z,22.03
2018-12-19T02:20:17.344Z,21.23
2018-12-19T02:25:47.973Z,21.73
2018-12-19T02:28:18.495Z,21.03
2018-12-19T02:33:39.654Z,21.00
2018-12-19T02:36:07.155Z,21.23
2018-12-19T02:38:34.594Z,22.60
2018-12-19T02:41:02.082Z,21.03
2018-12-19T02:43:29.572Z,22.03
2018-12-19T02:45:57.280Z,20.10
2018-12-19T02:48:24.771Z,21.93
2018-12-19T02:50:52.265Z,22.33
2018-12-19T02:53:19.832Z,21.13
2018-12-19T02:55:47.291Z,21.13
2018-12-19T02:58:14.825Z,21.87
2018-12-19T03:03:08.074Z,21.63
2018-12-19T03:05:35.591Z,23.17
2018-12-19T03:08:03.199Z,21.63
2018-12-19T03:10:30.660Z,20.13
2018-12-19T03:12:58.213Z,20.83
2018-12-19T03:15:25.740Z,20.87
2018-12-19T03:17:53.266Z,20.93
2018-12-19T03:20:20.796Z,21.00
2018-12-19T03:22:48.304Z,21.23
2018-12-19T03:25:15.788Z,22.10
2018-12-19T03:27:43.338Z,23.30
2018-12-19T03:30:33.678Z,24.10
2018-12-19T03:33:01.135Z,19.87
2018-12-19T03:35:28.591Z,20.90
2018-12-19T03:37:56.081Z,22.20
2018-12-19T03:40:23.586Z,22.73
2018-12-19T03:42:51.062Z,23.77
2018-12-19T03:45:18.626Z,24.87
2018-12-19T03:47:46.123Z,24.50
2018-12-19T03:50:13.917Z,22.67
2018-12-19T03:52:41.426Z,21.97
2018-12-19T03:55:08.914Z,22.10
2018-12-19T03:57:36.620Z,23.47
2018-12-19T04:00:04.815Z,21.90
2018-12-19T04:02:32.290Z,22.80
2018-12-19T04:04:59.762Z,22.90
2018-12-19T04:07:27.239Z,22.63
2018-12-19T04:09:57.930Z,22.13
2018-12-19T04:12:24.281Z,21.57
2018-12-19T04:14:51.826Z,21.20
2018-12-19T04:17:19.557Z,21.37
2018-12-19T04:19:47.022Z,21.27
2018-12-19T04:22:14.567Z,21.63
2018-12-19T04:24:42.101Z,22.77
2018-12-19T04:30:09.449Z,21.00
2018-12-19T04:32:37.139Z,21.33
2018-12-19T04:35:10.183Z,21.73
2018-12-19T04:37:52.956Z,22.37
2018-12-19T04:43:19.760Z,22.20
2018-12-19T04:45:47.266Z,20.70
2018-12-19T04:48:18.159Z,21.77
2018-12-19T04:50:46.469Z,22.20
2018-12-19T04:53:16.107Z,22.63
2018-12-19T04:55:43.632Z,23.00
2018-12-19T04:58:11.649Z,21.23
2018-12-19T05:00:39.689Z,21.47
2018-12-19T05:06:06.664Z,22.13
2018-12-19T05:08:34.708Z,21.67
2018-12-19T05:11:02.745Z,21.53
2018-12-19T05:13:30.220Z,21.93
2018-12-19T05:15:57.715Z,22.80
2018-12-19T05:18:25.175Z,21.43
2018-12-19T05:20:52.660Z,22.13
2018-12-19T05:23:20.131Z,22.53
2018-12-19T05:25:47.582Z,22.90
2018-12-19T05:31:13.708Z,21.83
2018-12-19T05:33:41.198Z,22.93
2018-12-19T05:36:08.651Z,21.47
2018-12-19T05:38:36.180Z,23.33
2018-12-19T05:41:04.491Z,22.47
2018-12-19T05:43:31.971Z,23.80
2018-12-19T05:45:59.441Z,22.57
2018-12-19T05:48:26.905Z,25.37
2018-12-19T05:50:54.420Z,23.20
2018-12-19T05:53:21.912Z,22.17
2018-12-19T05:55:49.375Z,23.60
2018-12-19T05:58:16.884Z,23.93
2018-12-19T06:00:44.435Z,27.97
2018-12-19T06:03:12.914Z,28.77
2018-12-19T06:05:40.385Z,26.10
2018-12-19T06:08:08.867Z,24.10
2018-12-19T06:10:36.322Z,26.37
2018-12-19T06:13:03.808Z,25.30
2018-12-19T06:15:31.263Z,23.03
2018-12-19T06:17:58.733Z,27.57
2018-12-19T06:20:26.212Z,27.27
2018-12-19T06:22:53.668Z,25.87
2018-12-19T06:25:21.114Z,25.07
2018-12-19T06:27:48.836Z,24.03
2018-12-19T06:30:16.924Z,23.13
2018-12-19T06:32:44.433Z,26.23
2018-12-19T06:35:11.988Z,24.83
2018-12-19T06:37:39.438Z,26.30
2018-12-19T06:40:07.379Z,26.00
2018-12-19T06:42:34.827Z,23.20
2018-12-19T06:45:02.304Z,23.87
2018-12-19T06:47:29.770Z,22.47
2018-12-19T06:49:57.210Z,23.33
2018-12-19T06:52:24.686Z,22.63
2018-12-19T06:54:52.170Z,21.70
2018-12-19T06:57:19.677Z,28.43
2018-12-19T06:59:47.155Z,26.00
2018-12-19T07:02:14.630Z,24.50
2018-12-19T07:04:42.086Z,26.00
2018-12-19T07:07:09.625Z,25.70
2018-12-19T07:09:37.079Z,28.87
2018-12-19T07:12:04.587Z,26.73
2018-12-19T07:14:32.180Z,24.63
2018-12-19T07:16:59.653Z,24.20
2018-12-19T07:19:27.210Z,22.40
2018-12-19T07:21:55.184Z,22.07
2018-12-19T07:24:22.949Z,21.30
2018-12-19T07:26:50.482Z,21.70
2018-12-19T07:29:17.945Z,21.07
2018-12-19T07:31:45.448Z,19.80
2018-12-19T07:34:12.968Z,20.60
2018-12-19T07:36:40.471Z,19.87
2018-12-19T07:39:08.096Z,19.50
2018-12-19T07:41:35.635Z,20.37
2018-12-19T07:44:03.101Z,20.30
2018-12-19T07:46:30.611Z,19.00
2018-12-19T07:48:58.087Z,18.63
2018-12-19T07:51:25.611Z,18.30
2018-12-19T07:53:53.068Z,18.80
2018-12-19T07:56:20.651Z,18.50
2018-12-19T07:58:48.119Z,18.27
2018-12-19T08:01:15.638Z,17.83
2018-12-19T08:03:43.122Z,18.67
2018-12-19T08:06:10.640Z,19.13
2018-12-19T08:08:38.157Z,16.80
2018-12-19T08:11:05.650Z,19.93
2018-12-19T08:13:33.138Z,20.63
2018-12-19T08:16:00.691Z,20.87
2018-12-19T08:18:29.656Z,18.73
2018-12-19T08:20:58.016Z,19.37
2018-12-19T08:23:26.687Z,19.03
2018-12-19T08:25:57.179Z,19.40
2018-12-19T08:28:26.634Z,19.43
2018-12-19T08:31:00.813Z,18.97
2018-12-19T08:33:30.040Z,21.53
2018-12-19T08:35:57.746Z,19.93
2018-12-19T08:38:25.673Z,20.50
2018-12-19T08:40:58.805Z,19.70
2018-12-19T08:43:24.667Z,19.00
2018-12-19T08:45:52.938Z,19.70
2018-12-19T08:48:20.819Z,19.90
2018-12-19T08:50:50.479Z,27.53
2018-12-19T08:53:18.581Z,22.07
2018-12-19T08:55:46.813Z,46.63
2018-12-19T08:58:14.607Z,34.63
2018-12-19T09:00:42.848Z,33.80
2018-12-19T09:03:12.552Z,29.17
2018-12-19T09:05:41.591Z,30.40
2018-12-19T09:08:09.634Z,85.33
2018-12-19T09:10:37.733Z,47.77
2018-12-19T09:13:05.358Z,40.27
2018-12-19T09:15:39.434Z,27.67
2018-12-19T09:18:07.077Z,20.80
2018-12-19T09:20:34.861Z,21.33
2018-12-19T09:23:02.435Z,17.73
2018-12-19T09:25:30.166Z,18.70
2018-12-19T09:27:57.768Z,22.47
2018-12-19T09:30:25.443Z,21.30
2018-12-19T09:32:53.071Z,17.93
2018-12-19T09:35:20.692Z,18.70
2018-12-19T09:37:48.381Z,21.10
2018-12-19T09:40:15.920Z,18.10
2018-12-19T09:42:43.498Z,17.03
2018-12-19T09:45:10.984Z,21.13
2018-12-19T09:47:38.526Z,18.23
2018-12-19T09:50:06.252Z,18.07
2018-12-19T09:52:33.785Z,17.60
2018-12-19T09:55:01.480Z,20.77
2018-12-19T09:57:29.355Z,18.47
2018-12-19T09:59:57.071Z,18.90
2018-12-19T10:02:24.708Z,19.20
2018-12-19T10:04:52.345Z,18.70
2018-12-19T10:07:20.064Z,17.70
2018-12-19T10:09:48.609Z,17.87
2018-12-19T10:12:16.339Z,18.07
2018-12-19T10:14:44.250Z,17.30
2018-12-19T10:17:11.843Z,20.33
2018-12-19T10:19:39.424Z,17.40
2018-12-19T10:22:07.525Z,18.13
2018-12-19T10:24:40.800Z,18.83
2018-12-19T10:27:08.369Z,17.57
2018-12-19T10:29:35.957Z,17.47
2018-12-19T10:32:03.525Z,16.50
2018-12-19T10:34:31.954Z,18.13
2018-12-19T10:36:59.723Z,18.07
2018-12-19T10:39:27.309Z,16.10
2018-12-19T10:41:55.009Z,15.03
2018-12-19T10:44:22.907Z,16.57
2018-12-19T10:46:50.657Z,16.03
2018-12-19T10:49:18.228Z,15.70
2018-12-19T10:51:46.475Z,15.07
2018-12-19T10:54:14.616Z,15.83
2018-12-19T10:56:43.296Z,16.13
2018-12-19T10:59:11.250Z,15.83
2018-12-19T11:01:39.057Z,15.33
2018-12-19T11:04:06.863Z,16.63
2018-12-19T11:06:34.389Z,18.17
2018-12-19T11:09:01.986Z,17.40
2018-12-19T11:11:32.412Z,16.60
2018-12-19T11:13:59.086Z,15.37
2018-12-19T11:16:26.729Z,14.57
2018-12-19T11:18:54.361Z,15.60
2018-12-19T11:21:21.904Z,16.10
2018-12-19T11:23:49.443Z,14.90
2018-12-19T11:26:17.026Z,14.70
2018-12-19T11:28:45.447Z,13.13
2018-12-19T11:31:13.217Z,14.97
2018-12-19T11:33:40.908Z,14.73
2018-12-19T11:36:08.514Z,16.40
2018-12-19T11:38:36.505Z,15.00
2018-12-19T11:41:04.396Z,14.57
2018-12-19T11:43:32.008Z,15.97
2018-12-19T11:45:59.743Z,14.87
2018-12-19T11:48:27.412Z,14.07
2018-12-19T11:50:55.048Z,14.63
2018-12-19T11:53:22.617Z,15.33
2018-12-19T11:55:50.279Z,16.67
2018-12-19T11:58:17.926Z,14.40
2018-12-19T12:00:45.477Z,15.87
2018-12-19T12:03:13.121Z,18.10
2018-12-19T12:05:41.075Z,17.67
2018-12-19T12:08:08.978Z,18.97
2018-12-19T12:10:36.932Z,16.43
2018-12-19T12:13:04.781Z,19.07
2018-12-19T12:15:32.403Z,18.37
2018-12-19T12:18:00.031Z,17.23
2018-12-19T12:20:27.691Z,19.67
2018-12-19T12:22:55.344Z,18.77
2018-12-19T12:25:23.616Z,19.03
2018-12-19T12:27:51.242Z,17.60
2018-12-19T12:30:19.759Z,18.33
2018-12-19T12:32:47.309Z,19.43
2018-12-19T12:35:14.845Z,18.40
2018-12-19T12:37:42.488Z,21.07
2018-12-19T12:40:09.977Z,20.97
2018-12-19T12:42:37.523Z,19.50
2018-12-19T12:45:05.388Z,18.40
2018-12-19T12:47:32.961Z,18.13
2018-12-19T12:50:00.453Z,17.60
2018-12-19T12:52:27.917Z,18.17
2018-12-19T12:54:55.377Z,19.87
2018-12-19T12:57:22.856Z,19.23
2018-12-19T12:59:52.306Z,18.70
2018-12-19T13:02:19.731Z,17.80
2018-12-19T13:04:47.314Z,18.67
2018-12-19T13:07:14.780Z,21.60
2018-12-19T13:09:42.450Z,21.03
2018-12-19T13:12:09.969Z,18.60
2018-12-19T13:14:37.450Z,18.93
2018-12-19T13:17:04.893Z,18.07
2018-12-19T13:19:32.437Z,18.37
2018-12-19T13:21:59.871Z,18.10
2018-12-19T13:24:27.331Z,16.90
2018-12-19T13:26:54.816Z,17.93
2018-12-19T13:29:22.271Z,18.03
2018-12-19T13:31:49.966Z,17.97
2018-12-19T13:34:17.468Z,22.93
2018-12-19T13:36:44.904Z,21.17
2018-12-19T13:39:12.393Z,17.80
2018-12-19T13:41:39.875Z,18.00
2018-12-19T13:44:07.356Z,16.70
2018-12-19T13:46:34.807Z,17.50
2018-12-19T13:49:02.391Z,18.70
2018-12-19T13:51:29.859Z,18.27
2018-12-19T13:53:57.337Z,19.07
2018-12-19T13:56:24.819Z,19.13
2018-12-19T13:58:52.726Z,18.77
2018-12-19T14:01:20.232Z,18.27
2018-12-19T14:03:47.929Z,19.63
2018-12-19T14:06:15.495Z,20.20
2018-12-19T14:08:42.982Z,18.93
2018-12-19T14:11:10.463Z,17.87
2018-12-19T14:13:38.059Z,18.43
2018-12-19T14:16:05.622Z,20.60
2018-12-19T14:18:33.099Z,18.77
2018-12-19T14:21:00.607Z,18.10
2018-12-19T14:23:28.364Z,18.10
2018-12-19T14:25:55.898Z,18.03
2018-12-19T14:28:23.383Z,19.87
2018-12-19T14:30:51.010Z,19.37
2018-12-19T14:33:18.449Z,19.47
2018-12-19T14:35:46.109Z,22.83
2018-12-19T14:38:13.571Z,23.07
2018-12-19T14:40:43.238Z,25.17
2018-12-19T14:43:16.276Z,27.93
2018-12-19T14:45:47.906Z,28.33
2018-12-19T14:48:16.136Z,21.60
2018-12-19T14:50:43.749Z,21.00
2018-12-19T14:53:11.205Z,20.33
2018-12-19T14:55:39.281Z,18.80
2018-12-19T14:58:07.745Z,21.17
2018-12-19T15:00:35.555Z,24.40
2018-12-19T15:03:03.243Z,24.30
2018-12-19T15:05:30.852Z,26.37
2018-12-19T15:07:58.760Z,30.07
2018-12-19T15:10:35.415Z,41.93
2018-12-19T15:13:02.940Z,31.87
2018-12-19T15:15:30.474Z,25.10
2018-12-19T15:17:57.973Z,24.00
2018-12-19T15:20:25.497Z,23.73
2018-12-19T15:22:52.974Z,23.60
2018-12-19T15:25:20.450Z,22.93
2018-12-19T15:27:48.041Z,21.70
2018-12-19T15:30:15.527Z,21.50
2018-12-19T15:32:43.182Z,24.20
2018-12-19T15:35:11.798Z,24.57
2018-12-19T15:37:39.315Z,22.57
2018-12-19T15:40:07.099Z,22.40
2018-12-19T15:42:34.680Z,21.70
2018-12-19T15:48:00.257Z,22.80
2018-12-19T15:50:30.415Z,22.83
2018-12-19T15:52:57.961Z,24.47
2018-12-19T15:55:27.606Z,24.07
2018-12-19T15:57:55.128Z,24.20
2018-12-19T16:00:23.606Z,24.07
2018-12-19T16:02:51.132Z,24.80
2018-12-19T16:05:18.762Z,22.90
2018-12-19T16:07:46.329Z,24.73
2018-12-19T16:10:13.874Z,24.30
2018-12-19T16:12:41.371Z,23.33
2018-12-19T16:15:10.895Z,22.87
2018-12-19T16:17:38.488Z,26.10
2018-12-19T16:20:07.487Z,23.70
2018-12-19T16:22:34.968Z,23.93
2018-12-19T16:25:02.517Z,22.93
2018-12-19T16:27:30.594Z,27.00
2018-12-19T16:29:58.067Z,22.87
2018-12-19T16:32:25.661Z,25.30
2018-12-19T16:34:53.131Z,22.27
2018-12-19T16:37:20.594Z,25.70
2018-12-19T16:39:48.098Z,22.40
2018-12-19T16:42:15.715Z,25.07
2018-12-19T16:44:43.209Z,24.10
2018-12-19T16:47:10.671Z,25.07
2018-12-19T16:49:41.830Z,27.73
2018-12-19T16:52:10.004Z,27.33
2018-12-19T16:54:38.922Z,27.20
2018-12-19T16:57:06.410Z,25.90
2018-12-19T16:59:37.694Z,28.73
2018-12-19T17:02:05.192Z,29.30
2018-12-19T17:04:37.186Z,25.53
2018-12-19T17:07:04.689Z,27.97
2018-12-19T17:09:32.141Z,28.33
2018-12-19T17:12:00.440Z,27.80
2018-12-19T17:14:27.978Z,25.60
2018-12-19T17:16:59.657Z,27.83
2018-12-19T17:19:27.169Z,25.43
2018-12-19T17:21:54.654Z,28.03
2018-12-19T17:24:26.766Z,25.77
2018-12-19T17:26:54.274Z,23.87
2018-12-19T17:29:21.780Z,25.87
2018-12-19T17:31:49.451Z,25.43
2018-12-19T17:34:16.970Z,24.30
2018-12-19T17:36:44.451Z,27.20
2018-12-19T17:39:16.801Z,32.47
2018-12-19T17:41:44.352Z,43.87
2018-12-19T17:44:12.914Z,35.17
2018-12-19T17:46:40.411Z,32.13
2018-12-19T17:49:07.941Z,32.50
2018-12-19T17:51:35.555Z,31.40
2018-12-19T17:54:03.230Z,25.80
2018-12-19T17:56:30.668Z,23.97
2018-12-19T17:58:58.317Z,24.47
2018-12-19T18:01:25.948Z,21.90
2018-12-19T18:03:53.458Z,23.87
2018-12-19T18:06:20.984Z,21.73
2018-12-19T18:08:48.463Z,22.30
2018-12-19T18:11:16.983Z,21.97
2018-12-19T18:13:44.587Z,22.33
2018-12-19T18:16:12.265Z,21.07
2018-12-19T18:18:39.992Z,23.53
2018-12-19T18:21:07.554Z,23.03
2018-12-19T18:23:35.053Z,40.37
2018-12-19T18:26:02.619Z,31.80
2018-12-19T18:28:30.096Z,33.37
2018-12-19T18:30:57.865Z,40.00
2018-12-19T18:33:25.317Z,29.27
2018-12-19T18:35:52.950Z,27.70
2018-12-19T18:38:20.445Z,29.20
2018-12-19T18:40:47.943Z,29.80
2018-12-19T18:43:15.471Z,31.20
2018-12-19T18:45:43.023Z,32.70
2018-12-19T18:48:10.703Z,29.30
2018-12-19T18:50:38.186Z,29.43
2018-12-19T18:53:05.667Z,24.27
2018-12-19T18:55:33.207Z,26.27
2018-12-19T18:58:01.134Z,26.60
2018-12-19T19:00:33.307Z,25.00
2018-12-19T19:03:01.114Z,27.93
2018-12-19T19:05:28.655Z,27.87
2018-12-19T19:07:57.438Z,24.27
2018-12-19T19:10:25.048Z,25.60
2018-12-19T19:12:52.570Z,25.00
2018-12-19T19:15:20.371Z,26.30
2018-12-19T19:17:48.837Z,25.83
2018-12-19T19:20:17.087Z,24.63
2018-12-19T19:22:44.644Z,21.80
2018-12-19T19:25:13.797Z,22.63
2018-12-19T19:27:41.381Z,22.87
2018-12-19T19:30:10.461Z,24.90
2018-12-19T19:32:38.198Z,32.23
2018-12-19T19:35:06.022Z,28.03
2018-12-19T19:37:33.942Z,26.50
2018-12-19T19:40:05.135Z,25.30
2018-12-19T19:42:32.679Z,23.23
2018-12-19T19:45:02.354Z,25.13
2018-12-19T19:47:30.132Z,30.43
2018-12-19T19:49:57.668Z,30.97
2018-12-19T19:52:25.260Z,31.27
2018-12-19T19:54:52.867Z,30.53
2018-12-19T19:57:20.413Z,29.20
2018-12-19T19:59:48.244Z,29.30
2018-12-19T20:02:15.847Z,29.07
2018-12-19T20:04:43.371Z,26.67
2018-12-19T20:07:10.963Z,25.63
2018-12-19T20:09:38.716Z,26.70
2018-12-19T20:12:06.245Z,26.87
2018-12-19T20:14:33.913Z,25.43
2018-12-19T20:17:02.368Z,26.67
2018-12-19T20:19:31.214Z,25.77
2018-12-19T20:21:58.980Z,28.83
2018-12-19T20:24:27.096Z,30.57
2018-12-19T20:26:54.815Z,32.83
2018-12-19T20:29:22.894Z,31.43
2018-12-19T20:31:50.658Z,27.53
2018-12-19T20:34:18.409Z,28.57
2018-12-19T20:36:46.129Z,27.87
2018-12-19T20:39:13.947Z,28.67
2018-12-19T20:41:41.686Z,27.47
2018-12-19T20:44:09.535Z,30.33
2018-12-19T20:46:38.439Z,31.00
2018-12-19T20:49:06.251Z,31.80
2018-12-19T20:51:33.977Z,31.30
2018-12-19T20:54:01.756Z,31.90
2018-12-19T20:56:29.429Z,34.33
2018-12-19T20:58:56.969Z,34.87
2018-12-19T21:01:24.789Z,34.67
2018-12-19T21:03:52.902Z,36.10
2018-12-19T21:06:36.500Z,36.60
2018-12-19T21:09:06.771Z,41.37
2018-12-19T21:11:34.267Z,37.07
2018-12-19T21:14:01.784Z,38.37
2018-12-19T21:16:34.815Z,39.27
2018-12-19T21:19:03.421Z,40.47
2018-12-19T21:21:30.962Z,40.33
2018-12-19T21:23:58.544Z,37.23
2018-12-19T21:26:26.205Z,37.10
2018-12-19T21:28:54.687Z,39.60
2018-12-19T21:31:22.347Z,40.50
2018-12-19T21:33:49.877Z,37.10
2018-12-19T21:36:17.469Z,34.67
2018-12-19T21:38:45.124Z,39.47
2018-12-19T21:41:12.770Z,37.47
2018-12-19T21:43:40.376Z,41.70
2018-12-19T21:46:08.540Z,39.77
2018-12-19T21:48:36.127Z,33.97
2018-12-19T21:51:03.712Z,33.80
2018-12-19T21:53:31.376Z,39.40
2018-12-19T21:55:59.573Z,41.17
2018-12-19T21:58:27.187Z,35.43
2018-12-19T22:00:54.892Z,32.60
2018-12-19T22:03:22.581Z,35.80
2018-12-19T22:05:50.218Z,32.90
2018-12-19T22:08:17.934Z,38.23
2018-12-19T22:10:45.756Z,35.53
2018-12-19T22:13:13.319Z,47.07
2018-12-19T22:15:41.970Z,42.30
2018-12-19T22:19:12.724Z,34.03
2018-12-19T22:21:40.271Z,34.10
2018-12-19T22:24:17.151Z,36.40
2018-12-19T22:26:51.018Z,31.47
2018-12-19T22:29:18.790Z,36.03
2018-12-19T22:34:38.905Z,34.47
2018-12-19T22:37:06.473Z,34.13
2018-12-19T22:39:40.284Z,31.20
2018-12-19T22:42:07.908Z,35.47
2018-12-19T22:44:41.203Z,32.70
2018-12-19T22:47:08.927Z,36.43
2018-12-19T22:49:39.927Z,33.37
2018-12-19T22:52:07.576Z,30.10
2018-12-19T22:54:35.244Z,31.87
2018-12-19T22:57:02.814Z,29.73
2018-12-19T22:59:30.405Z,29.23
2018-12-19T23:02:04.430Z,30.10
2018-12-19T23:04:35.625Z,32.57
2018-12-19T23:07:03.282Z,30.40
2018-12-19T23:09:43.778Z,29.53
2018-12-19T23:12:11.447Z,29.83
2018-12-19T23:17:39.401Z,73.63
2018-12-19T23:20:08.577Z,60.97
2018-12-19T23:22:36.117Z,30.03
2018-12-19T23:25:04.140Z,29.20
2018-12-19T23:27:38.008Z,29.70
2018-12-19T23:30:06.950Z,53.00
2018-12-19T23:32:41.027Z,48.90
2018-12-19T23:35:14.552Z,38.53
2018-12-19T23:40:47.778Z,30.07
2018-12-19T23:43:21.244Z,30.53
2018-12-19T23:45:48.939Z,28.47
2018-12-19T23:48:16.496Z,25.30
2018-12-19T23:56:31.318Z,26.17
2018-12-19T23:58:58.920Z,28.50
